首页
METAR-TAF:

METAR-TAF

机场 :

格拉斯哥机场

格拉斯哥, 苏格兰

纬度: 55-52N, 经度: 004-26W, 海拔: 8米

当前天气观测

该预报发布于34分钟前的09:50 UTC
风速10节,风向西转西南
温度 15°C
湿度 88%
气压 1017 hPa
能見度: 6000
少量云层高于1500英尺
散云层高于2600英尺
阴天层高于3400英尺
小雨

METAR: EGPF 130950Z AUTO 25010KT 6000 -RA FEW015 SCT026 OVC034 15/13 Q1017

时间: 11:24 (10:24 UTC)

预报

该预报发布于1小时和23分钟前的09:01 UTC
预报有效从13日的 09点(UTC)到 14日的 06点(UTC)
风速9节,风向西南
能见度10公里或以上
少量云层高于1500英尺
散云层高于3000英尺
短暂存在
从 13日的 09点(UTC)到 13日的 15点(UTC)
多云层高于1200英尺
几率 30% :
短暂存在
从 13日的 09点(UTC)到 13日的 11点(UTC)
能見度: 4000
多云层高于800英尺
雨, 毛毛雨
几率 30% :
短暂存在
从 13日的 23点(UTC)到 14日的 03点(UTC)
多云层高于1400英尺

TAF: EGPF 130901Z 1309/1406 23009KT 9999 FEW015 SCT030 TEMPO 1309/1315 BKN012 PROB30 TEMPO 1309/1311 4000 RADZ BKN008 PROB30 TEMPO 1323/1403 BKN014

超过4000个机场的气象观测和天气预报(METAR&TAF报告)。

可查询的气象台以黄色和红色小点在地图上表示。

将鼠标移到小点上方,可查看气象台名称。

然后点击查看天气观测和预报。

如需切换地图:点击带黑十字的绿色按钮放大地图;点击带横线的绿色按钮缩小地图;或者点击绿色箭头查看邻近地区的地图。


METAR-TAF: